createdAt,value
2022-12-19T00:00:35.033Z,51.64
2022-12-19T00:05:39.226Z,51.71
2022-12-19T00:10:41.929Z,51.50
2022-12-19T00:15:43.681Z,51.61
2022-12-19T00:20:45.484Z,51.22
2022-12-19T00:25:47.214Z,51.58
2022-12-19T00:30:50.524Z,51.73
2022-12-19T00:35:59.865Z,51.53
2022-12-19T00:41:33.802Z,51.34
2022-12-19T00:46:36.513Z,51.61
2022-12-19T00:51:38.515Z,51.31
2022-12-19T00:56:43.434Z,51.37
2022-12-19T01:01:45.347Z,51.24
2022-12-19T01:06:49.937Z,51.12
2022-12-19T01:12:10.920Z,51.22
2022-12-19T01:17:12.707Z,51.20
2022-12-19T01:22:14.524Z,51.47
2022-12-19T01:27:16.557Z,51.50
2022-12-19T01:32:18.425Z,51.12
2022-12-19T01:37:20.591Z,51.07
2022-12-19T01:42:23.575Z,51.17
2022-12-19T01:47:26.538Z,51.60
2022-12-19T01:52:28.518Z,51.48
2022-12-19T01:57:30.387Z,51.04
2022-12-19T02:02:36.066Z,51.18
2022-12-19T02:07:39.962Z,51.36
2022-12-19T02:12:43.851Z,51.18
2022-12-19T02:18:01.152Z,51.47
2022-12-19T02:23:48.321Z,51.57
2022-12-19T02:29:19.291Z,51.22
2022-12-19T02:34:33.403Z,51.31
2022-12-19T02:39:53.021Z,51.18
2022-12-19T02:44:56.672Z,50.96
2022-12-19T02:50:03.033Z,51.19
2022-12-19T02:55:09.800Z,50.86
2022-12-19T03:00:16.249Z,51.13
2022-12-19T03:05:34.188Z,51.04
2022-12-19T03:10:39.039Z,51.08
2022-12-19T03:15:41.985Z,51.03
2022-12-19T03:20:52.833Z,50.90
2022-12-19T03:26:00.011Z,51.04
2022-12-19T03:31:04.329Z,51.12
2022-12-19T03:36:09.211Z,51.27
2022-12-19T03:41:14.506Z,50.95
2022-12-19T03:46:26.083Z,50.95
2022-12-19T03:51:34.071Z,51.38
2022-12-19T03:56:45.654Z,51.37
2022-12-19T04:01:50.273Z,51.30
2022-12-19T04:06:53.274Z,51.28
2022-12-19T04:12:00.885Z,51.24
2022-12-19T04:17:43.437Z,51.66
2022-12-19T04:23:10.349Z,51.58
2022-12-19T04:28:34.846Z,51.40
2022-12-19T04:33:36.716Z,51.96
2022-12-19T04:38:38.729Z,52.04
2022-12-19T04:43:40.552Z,51.84
2022-12-19T04:48:42.419Z,52.18
2022-12-19T04:53:44.437Z,52.01
2022-12-19T04:58:46.289Z,52.18
2022-12-19T05:03:54.062Z,52.55
2022-12-19T05:08:57.021Z,52.08
2022-12-19T05:13:59.846Z,52.31
2022-12-19T05:19:01.800Z,51.99
2022-12-19T05:24:03.935Z,52.14
2022-12-19T05:29:05.820Z,52.46
2022-12-19T05:34:07.642Z,52.87
2022-12-19T05:39:09.476Z,52.41
2022-12-19T05:44:11.600Z,52.72
2022-12-19T05:49:17.683Z,52.76
2022-12-19T05:54:19.858Z,52.66
2022-12-19T05:59:21.656Z,52.95
2022-12-19T06:04:23.479Z,52.39
2022-12-19T06:09:25.381Z,52.45
2022-12-19T06:14:27.209Z,52.74
2022-12-19T06:19:30.745Z,52.63
2022-12-19T06:24:32.637Z,52.71
2022-12-19T06:29:34.489Z,52.64
2022-12-19T06:39:58.114Z,52.75
2022-12-19T06:44:59.963Z,53.13
2022-12-19T06:50:02.284Z,52.93
2022-12-19T06:55:04.408Z,53.05
2022-12-19T07:00:06.837Z,53.13
2022-12-19T07:05:09.767Z,53.07
2022-12-19T07:10:11.690Z,52.75
2022-12-19T07:15:13.664Z,53.00
2022-12-19T07:20:16.930Z,53.10
2022-12-19T07:25:18.805Z,52.93
2022-12-19T07:30:20.615Z,52.53
2022-12-19T07:35:23.218Z,53.23
2022-12-19T07:40:25.023Z,52.97
2022-12-19T07:45:27.849Z,52.89
2022-12-19T07:50:30.616Z,52.92
2022-12-19T07:55:33.690Z,53.15
2022-12-19T08:00:35.685Z,52.99
2022-12-19T08:05:37.533Z,53.01
2022-12-19T08:10:39.409Z,53.05
2022-12-19T08:15:41.288Z,53.25
2022-12-19T08:20:46.414Z,53.09
2022-12-19T08:25:48.369Z,52.82
2022-12-19T08:36:28.999Z,53.13
2022-12-19T08:41:32.081Z,53.29
2022-12-19T08:46:33.948Z,53.04
2022-12-19T08:51:35.788Z,52.91
2022-12-19T08:56:38.119Z,53.18
2022-12-19T09:01:48.277Z,53.18
2022-12-19T09:06:50.461Z,53.16
2022-12-19T09:11:52.322Z,53.38
2022-12-19T09:16:54.235Z,53.49
2022-12-19T09:21:59.707Z,53.58
2022-12-19T09:27:02.121Z,53.64
2022-12-19T09:32:04.118Z,53.89
2022-12-19T09:37:17.000Z,53.82
2022-12-19T09:42:40.924Z,53.87
2022-12-19T09:47:47.185Z,53.91
2022-12-19T09:53:02.644Z,54.05
2022-12-19T09:58:13.757Z,53.95
2022-12-19T10:03:39.783Z,54.01
2022-12-19T10:09:39.693Z,54.03
2022-12-19T10:14:31.808Z,54.02
2022-12-19T10:20:11.875Z,54.10
2022-12-19T10:25:34.889Z,54.03
2022-12-19T10:30:45.305Z,53.78
2022-12-19T10:35:57.475Z,53.81
2022-12-19T10:41:03.730Z,54.09
2022-12-19T10:46:18.158Z,53.82
2022-12-19T10:51:26.514Z,54.07
2022-12-19T10:56:37.139Z,53.69
2022-12-19T11:01:39.905Z,53.67
2022-12-19T11:06:49.455Z,53.69
2022-12-19T11:13:32.224Z,53.52
2022-12-19T11:25:32.891Z,53.62
2022-12-19T11:29:33.477Z,53.58
2022-12-19T11:30:43.752Z,53.14
2022-12-19T11:34:06.970Z,53.52
2022-12-19T11:39:19.495Z,53.31
2022-12-19T11:44:53.640Z,53.31
2022-12-19T11:50:03.595Z,53.84
2022-12-19T11:55:25.729Z,53.77
2022-12-19T12:00:28.150Z,53.42
2022-12-19T12:05:46.272Z,53.58
2022-12-19T12:15:44.870Z,53.80
2022-12-19T12:29:41.610Z,54.07
2022-12-19T12:31:11.789Z,54.35
2022-12-19T12:31:57.752Z,54.36
2022-12-19T12:35:56.637Z,54.26
2022-12-19T12:39:38.796Z,53.93
2022-12-19T12:44:45.961Z,53.87
2022-12-19T12:50:01.314Z,54.32
2022-12-19T12:55:06.421Z,54.61
2022-12-19T13:00:22.839Z,54.50
2022-12-19T13:05:53.744Z,54.11
2022-12-19T13:10:58.754Z,54.59
2022-12-19T13:16:20.624Z,54.85
2022-12-19T13:21:22.708Z,55.05
2022-12-19T13:26:50.158Z,55.20
2022-12-19T13:32:13.711Z,55.34
2022-12-19T13:39:47.738Z,55.33
2022-12-19T13:43:25.617Z,54.96
2022-12-19T13:48:43.892Z,55.89
2022-12-19T13:53:46.048Z,56.15
2022-12-19T13:59:00.695Z,55.64
2022-12-19T14:04:12.547Z,56.19
2022-12-19T14:11:27.416Z,55.98
2022-12-19T14:15:21.740Z,56.29
2022-12-19T14:22:05.553Z,56.81
2022-12-19T14:28:20.529Z,56.87
2022-12-19T14:31:18.766Z,57.53
2022-12-19T14:36:40.498Z,57.43
2022-12-19T14:42:04.352Z,57.53
2022-12-19T14:54:01.914Z,57.91
2022-12-19T14:54:52.571Z,57.78
2022-12-19T14:58:52.801Z,57.93
2022-12-19T15:04:50.766Z,58.42
2022-12-19T15:11:04.094Z,58.45
2022-12-19T15:14:59.009Z,58.64
2022-12-19T15:20:01.936Z,58.41
2022-12-19T15:25:04.063Z,58.36
2022-12-19T15:30:15.788Z,58.78
2022-12-19T15:35:19.853Z,58.78
2022-12-19T15:40:21.883Z,58.94
2022-12-19T15:45:24.619Z,59.23
2022-12-19T15:50:29.752Z,59.21
2022-12-19T15:55:31.822Z,58.96
2022-12-19T16:00:36.281Z,58.73
2022-12-19T16:05:38.194Z,58.85
2022-12-19T16:10:41.538Z,59.20
2022-12-19T16:15:44.454Z,59.33
2022-12-19T16:20:47.975Z,60.13
2022-12-19T16:25:51.003Z,60.32
2022-12-19T16:30:53.789Z,60.24
2022-12-19T16:36:05.790Z,60.17
2022-12-19T16:41:22.066Z,59.88
2022-12-19T16:46:24.062Z,59.31
2022-12-19T16:51:28.097Z,59.69
2022-12-19T16:56:33.987Z,59.61
2022-12-19T17:01:36.291Z,60.04
2022-12-19T17:06:38.191Z,60.23
2022-12-19T17:11:40.957Z,60.16
2022-12-19T17:16:42.841Z,60.24
2022-12-19T17:21:44.748Z,60.46
2022-12-19T17:26:47.057Z,60.36
2022-12-19T17:31:49.003Z,60.46
2022-12-19T17:36:51.417Z,60.34
2022-12-19T17:41:56.178Z,60.16
2022-12-19T17:46:58.982Z,60.35
2022-12-19T17:52:00.964Z,60.58
2022-12-19T17:57:02.871Z,60.45
2022-12-19T18:02:12.741Z,60.42
2022-12-19T18:07:18.343Z,59.92
2022-12-19T18:12:20.364Z,60.13
2022-12-19T18:17:25.519Z,60.60
2022-12-19T18:22:27.394Z,60.34
2022-12-19T18:27:29.216Z,59.97
2022-12-19T18:32:31.333Z,60.00
2022-12-19T18:37:33.378Z,60.13
2022-12-19T18:42:35.186Z,59.86
2022-12-19T18:47:37.018Z,60.35
2022-12-19T18:52:38.842Z,59.58
2022-12-19T18:57:40.646Z,59.86
2022-12-19T19:03:04.824Z,60.13
2022-12-19T19:08:22.471Z,59.75
2022-12-19T19:13:34.613Z,59.98
2022-12-19T19:18:40.359Z,60.29
2022-12-19T19:23:58.237Z,60.21
2022-12-19T19:29:00.602Z,59.82
2022-12-19T19:34:12.915Z,60.60
2022-12-19T19:39:15.597Z,60.04
2022-12-19T19:44:17.625Z,59.61
2022-12-19T19:49:23.164Z,60.14
2022-12-19T19:54:25.267Z,60.24
2022-12-19T19:59:31.620Z,59.89
2022-12-19T20:04:33.877Z,59.81
2022-12-19T20:09:35.884Z,60.70
2022-12-19T20:14:37.912Z,60.62
2022-12-19T20:19:40.002Z,60.74
2022-12-19T20:24:42.048Z,60.59
2022-12-19T20:29:44.387Z,59.78
2022-12-19T20:34:46.669Z,59.62
2022-12-19T20:39:48.763Z,60.12
2022-12-19T20:44:50.998Z,60.41
2022-12-19T20:49:53.240Z,59.34
2022-12-19T20:54:55.092Z,59.82
2022-12-19T20:59:56.942Z,59.77
2022-12-19T21:04:58.829Z,60.34
2022-12-19T21:10:00.658Z,60.58
2022-12-19T21:15:02.581Z,60.82
2022-12-19T21:20:04.935Z,60.12
2022-12-19T21:25:07.235Z,60.65
2022-12-19T21:30:09.725Z,60.61
2022-12-19T21:35:11.904Z,60.32
2022-12-19T21:40:14.124Z,60.18
2022-12-19T21:45:16.224Z,60.84
2022-12-19T21:50:18.118Z,60.52
2022-12-19T21:55:19.968Z,60.58
2022-12-19T22:00:21.932Z,59.88
2022-12-19T22:05:23.906Z,59.86
2022-12-19T22:10:25.801Z,59.49
2022-12-19T22:15:27.615Z,59.91
2022-12-19T22:20:30.202Z,60.14
2022-12-19T22:25:32.015Z,59.54
2022-12-19T22:30:36.856Z,60.07
2022-12-19T22:35:38.740Z,59.63
2022-12-19T22:40:40.553Z,59.77
2022-12-19T22:45:42.423Z,59.83
2022-12-19T22:50:47.099Z,59.36
2022-12-19T22:55:48.903Z,59.17
2022-12-19T23:00:50.807Z,59.13
2022-12-19T23:05:52.616Z,58.56
2022-12-19T23:10:55.258Z,58.96
2022-12-19T23:15:57.615Z,59.18
2022-12-19T23:21:09.039Z,59.19
2022-12-19T23:26:17.523Z,59.42
2022-12-19T23:31:19.832Z,59.22
2022-12-19T23:36:45.293Z,59.14
2022-12-19T23:41:44.034Z,59.17
2022-12-19T23:46:46.141Z,59.03
2022-12-19T23:51:47.995Z,59.16
2022-12-19T23:56:49.868Z,59.07
